createdAt,value
2024-02-22T00:02:42.187Z,1.20
2024-02-22T00:07:44.114Z,1.27
2024-02-22T00:12:46.062Z,1.15
2024-02-22T00:17:48.024Z,0.98
2024-02-22T00:22:50.072Z,1.35
2024-02-22T00:27:52.326Z,1.27
2024-02-22T00:32:54.206Z,2.42
2024-02-22T00:37:56.116Z,1.50
2024-02-22T00:42:58.062Z,1.67
2024-02-22T00:48:00.256Z,2.03
2024-02-22T00:53:02.383Z,1.40
2024-02-22T00:58:07.031Z,1.58
2024-02-22T01:03:10.710Z,2.03
2024-02-22T01:08:12.721Z,1.38
2024-02-22T01:13:14.731Z,1.70
2024-02-22T01:18:16.762Z,1.48
2024-02-22T01:23:18.947Z,1.70
2024-02-22T01:28:21.260Z,2.00
2024-02-22T01:33:23.215Z,2.17
2024-02-22T01:38:25.134Z,2.10
2024-02-22T01:43:27.082Z,2.58
2024-02-22T01:48:29.722Z,2.33
2024-02-22T01:53:34.163Z,2.20
2024-02-22T01:58:37.793Z,2.45
2024-02-22T02:03:50.896Z,2.13
2024-02-22T02:08:52.931Z,1.90
2024-02-22T02:13:54.918Z,2.45
2024-02-22T02:18:57.429Z,2.30
2024-02-22T02:24:02.482Z,2.50
2024-02-22T02:29:04.799Z,2.00
2024-02-22T02:34:06.812Z,2.17
2024-02-22T02:39:09.637Z,2.10
2024-02-22T02:44:11.732Z,1.90
2024-02-22T02:49:13.658Z,2.33
2024-02-22T02:54:16.102Z,2.03
2024-02-22T02:59:18.185Z,2.20
2024-02-22T03:04:21.079Z,1.80
2024-02-22T03:09:22.990Z,2.20
2024-02-22T03:14:24.942Z,1.95
2024-02-22T03:19:26.991Z,2.33
2024-02-22T03:24:28.865Z,2.58
2024-02-22T03:29:31.299Z,1.95
2024-02-22T03:34:34.473Z,2.15
2024-02-22T03:39:37.127Z,2.15
2024-02-22T03:44:39.029Z,1.90
2024-02-22T03:49:40.892Z,1.75
2024-02-22T03:54:42.857Z,2.20
2024-02-22T03:59:44.793Z,1.90
2024-02-22T04:04:54.818Z,2.03
2024-02-22T04:09:56.795Z,2.35
2024-02-22T04:14:58.793Z,2.10
2024-02-22T04:20:02.129Z,2.65
2024-02-22T04:25:04.493Z,2.05
2024-02-22T04:30:07.151Z,2.67
2024-02-22T04:35:09.777Z,2.33
2024-02-22T04:40:12.117Z,2.20
2024-02-22T04:45:14.886Z,2.25
2024-02-22T04:50:17.171Z,2.30
2024-02-22T04:55:19.921Z,2.05
2024-02-22T05:00:22.961Z,2.10
2024-02-22T05:05:25.427Z,2.58
2024-02-22T05:10:27.453Z,2.08
2024-02-22T05:15:29.640Z,2.30
2024-02-22T05:20:31.747Z,2.08
2024-02-22T05:25:35.173Z,2.67
2024-02-22T05:30:37.165Z,3.28
2024-02-22T05:35:39.256Z,2.83
2024-02-22T05:40:42.709Z,8.27
2024-02-22T05:45:48.162Z,4.40
2024-02-22T05:50:50.156Z,2.67
2024-02-22T05:55:52.104Z,2.58
2024-02-22T06:00:54.149Z,2.47
2024-02-22T06:05:56.157Z,2.45
2024-02-22T06:10:58.176Z,2.70
2024-02-22T06:16:00.146Z,2.63
2024-02-22T06:21:03.368Z,2.90
2024-02-22T06:26:05.673Z,3.35
2024-02-22T06:31:07.703Z,3.65
2024-02-22T06:36:11.101Z,3.60
2024-02-22T06:41:15.583Z,3.90
2024-02-22T06:46:17.752Z,3.83
2024-02-22T06:51:21.994Z,4.50
2024-02-22T06:56:24.574Z,4.43
2024-02-22T07:01:26.703Z,5.57
2024-02-22T07:06:29.611Z,5.70
2024-02-22T07:11:32.237Z,5.53
2024-02-22T07:16:34.718Z,5.80
2024-02-22T07:21:37.207Z,5.22
2024-02-22T07:26:42.523Z,11.05
2024-02-22T07:31:44.564Z,4.68
2024-02-22T07:36:46.602Z,4.22
2024-02-22T07:41:48.588Z,4.45
2024-02-22T07:46:50.525Z,5.85
2024-02-22T07:51:58.069Z,7.57
2024-02-22T07:57:00.792Z,7.85
2024-02-22T08:02:04.072Z,7.10
2024-02-22T08:07:06.520Z,8.30
2024-02-22T08:12:08.785Z,7.80
2024-02-22T08:17:11.581Z,6.40
2024-02-22T08:22:13.650Z,6.75
2024-02-22T08:27:15.584Z,8.50
2024-02-22T08:32:18.031Z,8.90
2024-02-22T08:37:20.030Z,9.27
2024-02-22T08:42:21.987Z,8.20
2024-02-22T08:47:24.020Z,6.15
2024-02-22T08:52:26.546Z,5.40
2024-02-22T08:57:30.041Z,5.57
2024-02-22T09:02:34.947Z,5.63
2024-02-22T09:07:37.213Z,6.03
2024-02-22T09:12:41.613Z,5.30
2024-02-22T09:17:43.775Z,6.10
2024-02-22T09:22:45.797Z,6.15
2024-02-22T09:27:47.744Z,6.47
2024-02-22T09:32:51.361Z,7.10
2024-02-22T09:37:53.501Z,6.43
2024-02-22T09:42:56.329Z,6.45
2024-02-22T09:47:58.494Z,6.65
2024-02-22T09:53:00.622Z,7.75
2024-02-22T09:58:02.702Z,7.88
2024-02-22T10:03:04.774Z,7.05
2024-02-22T10:08:19.120Z,7.38
2024-02-22T10:13:22.397Z,7.25
2024-02-22T10:18:29.774Z,7.70
2024-02-22T10:23:32.049Z,7.55
2024-02-22T10:28:34.601Z,7.75
2024-02-22T10:33:38.578Z,7.00
2024-02-22T10:38:40.973Z,7.35
2024-02-22T10:43:44.481Z,6.93
2024-02-22T10:48:52.654Z,7.30
2024-02-22T10:53:56.418Z,7.18
2024-02-22T10:59:06.212Z,6.25
2024-02-22T11:04:09.144Z,7.25
2024-02-22T11:09:25.645Z,8.27
2024-02-22T11:14:36.974Z,7.95
2024-02-22T11:19:38.946Z,7.40
2024-02-22T11:24:41.075Z,8.77
2024-02-22T11:29:43.281Z,7.95
2024-02-22T11:34:45.297Z,7.68
2024-02-22T11:40:01.302Z,7.95
2024-02-22T11:45:12.828Z,8.15
2024-02-22T11:50:18.981Z,8.75
2024-02-22T11:55:21.112Z,7.90
2024-02-22T12:00:23.190Z,7.45
2024-02-22T12:05:26.400Z,8.20
2024-02-22T12:10:29.623Z,7.40
2024-02-22T12:15:32.003Z,8.75
2024-02-22T12:20:34.688Z,10.63
2024-02-22T12:25:36.681Z,8.68
2024-02-22T12:30:40.696Z,8.50
2024-02-22T12:35:42.793Z,9.02
2024-02-22T12:40:45.888Z,8.65
2024-02-22T12:45:51.022Z,9.15
2024-02-22T12:50:52.976Z,8.93
2024-02-22T12:55:56.470Z,8.93
2024-02-22T13:00:58.876Z,8.40
2024-02-22T13:06:00.920Z,8.20
2024-02-22T13:11:04.250Z,10.52
2024-02-22T13:16:06.407Z,12.45
2024-02-22T13:21:08.329Z,8.27
2024-02-22T13:26:10.612Z,8.68
2024-02-22T13:31:13.060Z,8.98
2024-02-22T13:36:15.049Z,7.50
2024-02-22T13:41:17.237Z,8.07
2024-02-22T13:46:19.307Z,11.27
2024-02-22T13:51:26.776Z,10.70
2024-02-22T13:56:36.382Z,8.07
2024-02-22T14:01:38.831Z,8.73
2024-02-22T14:06:41.394Z,8.45
2024-02-22T14:11:44.039Z,9.43
2024-02-22T14:16:47.512Z,7.97
2024-02-22T14:21:49.614Z,20.70
2024-02-22T14:26:54.278Z,11.57
2024-02-22T14:31:56.257Z,9.20
2024-02-22T14:36:58.232Z,7.60
2024-02-22T14:42:00.174Z,7.68
2024-02-22T14:47:05.367Z,7.78
2024-02-22T14:52:07.383Z,6.28
2024-02-22T14:57:10.068Z,7.65
2024-02-22T15:02:11.984Z,7.15
2024-02-22T15:07:13.977Z,8.20
2024-02-22T15:12:16.093Z,7.57
2024-02-22T15:17:23.339Z,6.80
2024-02-22T15:22:26.746Z,8.80
2024-02-22T15:27:29.124Z,11.27
2024-02-22T15:32:31.136Z,9.07
2024-02-22T15:37:34.371Z,7.78
2024-02-22T15:42:37.018Z,8.30
2024-02-22T15:47:39.355Z,8.80
2024-02-22T15:52:41.359Z,11.40
2024-02-22T15:57:43.696Z,7.95
2024-02-22T16:02:45.728Z,10.45
2024-02-22T16:07:48.640Z,9.30
2024-02-22T16:12:50.675Z,8.45
2024-02-22T16:17:52.600Z,9.68
2024-02-22T16:22:55.134Z,9.57
2024-02-22T16:27:57.121Z,8.30
2024-02-22T16:32:59.693Z,8.27
2024-02-22T16:38:03.277Z,14.80
2024-02-22T16:43:05.364Z,14.02
2024-02-22T16:48:07.846Z,13.45
2024-02-22T16:53:11.843Z,18.63
2024-02-22T16:58:13.818Z,17.50
2024-02-22T17:03:15.696Z,13.75
2024-02-22T17:08:18.063Z,18.17
2024-02-22T17:13:20.041Z,12.48
2024-02-22T17:18:24.501Z,13.50
2024-02-22T17:23:28.021Z,12.95
2024-02-22T17:28:33.577Z,11.43
2024-02-22T17:33:36.089Z,13.75
2024-02-22T17:38:38.463Z,14.90
2024-02-22T17:43:40.562Z,11.32
2024-02-22T17:48:42.853Z,12.68
2024-02-22T17:53:48.052Z,20.25
2024-02-22T17:58:55.318Z,20.90
2024-02-22T18:03:58.937Z,15.13
2024-02-22T18:09:01.207Z,12.00
2024-02-22T18:14:04.329Z,11.05
2024-02-22T18:19:06.507Z,11.07
2024-02-22T18:24:08.860Z,12.10
2024-02-22T18:29:10.782Z,15.80
2024-02-22T18:34:13.041Z,45.63
2024-02-22T18:39:15.549Z,13.77
2024-02-22T18:44:17.483Z,12.77
2024-02-22T18:49:21.063Z,8.93
2024-02-22T18:54:23.043Z,6.32
2024-02-22T18:59:24.998Z,32.08
2024-02-22T19:04:27.017Z,13.35
2024-02-22T19:09:29.034Z,14.35
2024-02-22T19:14:30.940Z,8.82
2024-02-22T19:19:34.196Z,32.65
2024-02-22T19:24:38.779Z,29.15
2024-02-22T19:29:42.655Z,15.93
2024-02-22T19:34:44.696Z,4.88
2024-02-22T19:39:55.006Z,5.13
2024-02-22T19:44:56.881Z,7.00
2024-02-22T19:49:59.866Z,6.30
2024-02-22T19:55:11.547Z,4.13
2024-02-22T20:00:14.546Z,3.13
2024-02-22T20:05:19.636Z,3.50
2024-02-22T20:10:23.172Z,3.40
2024-02-22T20:15:34.535Z,3.10
2024-02-22T20:20:37.196Z,3.42
2024-02-22T20:25:39.234Z,4.18
2024-02-22T20:30:41.329Z,4.05
2024-02-22T20:35:43.493Z,4.07
2024-02-22T20:40:47.940Z,3.03
2024-02-22T20:45:57.671Z,2.85
2024-02-22T20:51:00.245Z,2.60
2024-02-22T20:56:02.867Z,2.83
2024-02-22T21:01:06.020Z,3.50
2024-02-22T21:06:09.701Z,3.30
2024-02-22T21:11:14.844Z,2.30
2024-02-22T21:16:30.372Z,2.22
2024-02-22T21:21:32.514Z,2.42
2024-02-22T21:26:34.629Z,2.35
2024-02-22T21:31:36.736Z,2.65
2024-02-22T21:36:38.739Z,2.20
2024-02-22T21:41:40.813Z,2.38
2024-02-22T21:46:42.773Z,2.72
2024-02-22T21:51:48.165Z,1.92
2024-02-22T21:56:50.026Z,2.00
2024-02-22T22:01:51.949Z,1.98
2024-02-22T22:06:54.953Z,1.92
2024-02-22T22:11:56.879Z,1.90
2024-02-22T22:16:58.776Z,2.10
2024-02-22T22:22:00.690Z,1.92
2024-02-22T22:27:02.599Z,2.10
2024-02-22T22:32:05.308Z,1.70
2024-02-22T22:37:07.417Z,1.65
2024-02-22T22:42:09.452Z,1.83
2024-02-22T22:47:11.533Z,1.85
2024-02-22T22:52:13.602Z,2.10
2024-02-22T22:57:15.994Z,1.95
2024-02-22T23:02:17.975Z,1.88
2024-02-22T23:07:20.898Z,2.40
2024-02-22T23:12:23.052Z,1.90
2024-02-22T23:17:25.458Z,2.00
2024-02-22T23:22:30.834Z,1.88
2024-02-22T23:27:34.235Z,1.95
2024-02-22T23:32:36.212Z,2.42
2024-02-22T23:37:38.152Z,2.28
2024-02-22T23:42:40.150Z,2.03
2024-02-22T23:47:42.133Z,3.55
2024-02-22T23:52:45.084Z,2.88
2024-02-22T23:57:47.019Z,4.32
